Time;durP1;ratioP1;P1;durP2;ratioP2;P2;SDS_P1;SDS_P2;PMS_P1;PMS_P2;Temp;Humidity;BMP_temperature;BMP_pressure;BME280_temperature;BME280_humidity;BME280_pressure;Samples;Min_cycle;Max_cycle;Signal;HPM_P1;HPM_P2
2024/02/25 00:00:22;;;;;;;6.88;0.55;;;6.30;99.90;;;;;;5063359;28;20043;-69
2024/02/25 00:02:47;;;;;;;4.50;0.70;;;6.20;99.90;;;;;;5083568;28;20111;-69
2024/02/25 00:05:13;;;;;;;4.22;0.68;;;6.20;99.90;;;;;;5065586;28;20089;-72
2024/02/25 00:07:39;;;;;;;1.73;0.45;;;6.20;99.90;;;;;;5074324;28;20044;-70
2024/02/25 00:10:06;;;;;;;1.52;0.50;;;6.20;99.90;;;;;;5075858;28;20055;-72
2024/02/25 00:12:32;;;;;;;1.83;0.50;;;6.20;99.90;;;;;;5057246;28;20085;-68
2024/02/25 00:14:58;;;;;;;3.78;0.50;;;6.20;99.90;;;;;;5053372;28;20663;-69
2024/02/25 00:17:23;;;;;;;1.80;0.60;;;6.20;99.90;;;;;;5080540;28;20086;-69
2024/02/25 00:19:49;;;;;;;2.38;0.60;;;6.10;99.90;;;;;;5064270;28;20394;-70
2024/02/25 00:22:15;;;;;;;2.05;0.75;;;6.10;99.90;;;;;;5076298;28;20519;-72
2024/02/25 00:24:40;;;;;;;2.75;0.73;;;6.20;99.90;;;;;;5063028;28;20052;-69
2024/02/25 00:27:06;;;;;;;2.83;0.68;;;6.00;99.90;;;;;;5078658;28;20052;-70
2024/02/25 00:29:32;;;;;;;1.10;0.60;;;6.00;99.90;;;;;;5076487;28;20024;-69
2024/02/25 00:31:58;;;;;;;2.75;0.75;;;6.00;99.90;;;;;;5061657;28;20688;-72
2024/02/25 00:34:23;;;;;;;1.75;0.60;;;5.90;99.90;;;;;;5062900;28;20393;-71
2024/02/25 00:36:49;;;;;;;0.57;0.45;;;5.90;99.90;;;;;;5062557;28;20491;-71
2024/02/25 00:39:17;;;;;;;0.45;0.40;;;5.90;99.90;;;;;;5075845;28;20390;-73
2024/02/25 00:41:44;;;;;;;3.15;0.93;;;5.90;99.90;;;;;;5076670;28;20032;-71
2024/02/25 00:44:10;;;;;;;0.88;0.45;;;5.80;99.90;;;;;;5073339;28;20596;-69
2024/02/25 00:46:35;;;;;;;4.85;0.52;;;5.90;99.90;;;;;;5072239;28;20035;-73
2024/02/25 00:49:01;;;;;;;1.98;0.70;;;5.80;99.90;;;;;;5080452;28;20028;-73
2024/02/25 00:51:27;;;;;;;0.70;0.60;;;5.80;99.90;;;;;;5081392;28;20504;-69
2024/02/25 00:53:52;;;;;;;5.03;0.80;;;5.80;99.90;;;;;;5065025;28;20024;-71
2024/02/25 00:56:18;;;;;;;2.13;0.73;;;5.80;99.90;;;;;;5083477;28;20037;-71
2024/02/25 00:58:44;;;;;;;3.10;0.65;;;5.80;99.90;;;;;;5076138;28;20093;-70
2024/02/25 01:01:14;;;;;;;3.05;0.70;;;5.80;99.90;;;;;;5077011;28;20696;-73
2024/02/25 01:03:44;;;;;;;5.18;0.93;;;5.80;99.90;;;;;;5082448;28;20050;-69
2024/02/25 01:06:10;;;;;;;1.25;0.57;;;5.80;99.90;;;;;;5077301;28;20037;-72
2024/02/25 01:08:38;;;;;;;4.88;0.77;;;5.80;99.90;;;;;;5075427;28;20573;-71
2024/02/25 01:11:06;;;;;;;4.55;0.75;;;5.80;99.90;;;;;;5077722;28;20032;-69
2024/02/25 01:13:33;;;;;;;3.00;0.30;;;5.80;99.90;;;;;;5077038;28;20067;-68
2024/02/25 01:16:02;;;;;;;1.88;0.70;;;5.80;99.90;;;;;;5079293;28;20061;-70
2024/02/25 01:18:33;;;;;;;1.02;0.50;;;5.80;99.90;;;;;;5073212;28;20038;-69
2024/02/25 01:21:00;;;;;;;1.45;0.63;;;5.80;99.90;;;;;;5076217;28;20033;-72
2024/02/25 01:23:26;;;;;;;2.45;0.57;;;5.80;99.90;;;;;;5066852;28;20139;-70
2024/02/25 01:25:51;;;;;;;1.48;0.55;;;5.70;99.90;;;;;;5079599;28;20507;-70
2024/02/25 01:28:18;;;;;;;3.28;0.70;;;5.70;99.90;;;;;;5080854;28;20038;-71
2024/02/25 01:30:45;;;;;;;1.00;0.55;;;5.70;99.90;;;;;;5076749;28;20103;-72
2024/02/25 01:33:11;;;;;;;3.85;0.60;;;5.70;99.90;;;;;;5077203;28;20032;-70
2024/02/25 01:35:37;;;;;;;3.03;0.77;;;5.60;99.90;;;;;;5082581;28;20039;-70
2024/02/25 01:38:02;;;;;;;1.50;0.60;;;5.60;99.90;;;;;;5082198;28;20119;-70
2024/02/25 01:40:28;;;;;;;2.15;0.82;;;5.60;99.90;;;;;;5087351;28;20097;-72
2024/02/25 01:43:16;;;;;;;1.15;0.70;;;5.60;99.90;;;;;;5083567;28;20089;-73
2024/02/25 01:45:42;;;;;;;1.52;0.60;;;5.50;99.90;;;;;;5079429;28;20397;-73
2024/02/25 01:48:08;;;;;;;2.55;0.98;;;5.50;99.90;;;;;;5068348;28;20032;-72
2024/02/25 01:50:38;;;;;;;2.35;0.70;;;5.50;99.90;;;;;;5082094;28;20040;-72
2024/02/25 01:53:04;;;;;;;3.78;0.70;;;5.40;99.90;;;;;;5077138;28;20062;-73
2024/02/25 01:55:35;;;;;;;1.52;0.90;;;5.40;99.90;;;;;;5077252;28;20044;-72
2024/02/25 01:58:05;;;;;;;3.28;0.80;;;5.40;99.90;;;;;;5075342;28;20058;-69
2024/02/25 02:00:33;;;;;;;2.65;0.77;;;5.40;99.90;;;;;;5079609;28;20043;-69
2024/02/25 02:02:59;;;;;;;1.23;0.60;;;5.30;99.90;;;;;;5072651;28;20115;-73
2024/02/25 02:05:25;;;;;;;2.17;0.73;;;5.30;99.90;;;;;;5079090;28;20038;-72
2024/02/25 02:07:52;;;;;;;3.38;0.82;;;5.30;99.90;;;;;;5081196;28;20035;-68
2024/02/25 02:10:18;;;;;;;1.40;0.77;;;5.30;99.90;;;;;;5075358;28;20032;-72
2024/02/25 02:12:46;;;;;;;2.13;0.60;;;5.30;99.90;;;;;;5080257;28;20073;-69
2024/02/25 02:15:13;;;;;;;3.88;1.00;;;5.30;99.90;;;;;;5084038;28;20035;-73
2024/02/25 02:17:42;;;;;;;3.85;0.55;;;5.30;99.90;;;;;;5079371;28;20041;-73
2024/02/25 02:20:20;;;;;;;1.23;0.57;;;5.30;99.90;;;;;;5081120;28;20041;-71
2024/02/25 02:22:47;;;;;;;3.63;0.80;;;5.30;99.90;;;;;;5083862;28;20028;-71
2024/02/25 02:25:15;;;;;;;3.45;0.70;;;5.30;99.90;;;;;;5083162;28;20035;-69
2024/02/25 02:27:42;;;;;;;2.53;0.57;;;5.40;99.90;;;;;;5084701;28;20028;-68
2024/02/25 02:30:09;;;;;;;2.57;0.77;;;5.40;99.90;;;;;;5065645;28;20032;-71
2024/02/25 02:32:36;;;;;;;1.88;0.63;;;5.40;99.90;;;;;;5080998;28;20626;-70
2024/02/25 02:35:02;;;;;;;5.00;0.73;;;5.40;99.90;;;;;;5083701;28;20033;-67
2024/02/25 02:37:28;;;;;;;3.38;0.70;;;5.40;99.90;;;;;;5080696;28;20337;-73
2024/02/25 02:39:54;;;;;;;1.63;0.52;;;5.40;99.90;;;;;;5072032;28;20025;-72
2024/02/25 02:42:20;;;;;;;1.13;0.40;;;5.40;99.90;;;;;;5080290;28;20226;-74
2024/02/25 02:44:47;;;;;;;3.40;0.63;;;5.40;99.90;;;;;;5066512;28;20405;-71
2024/02/25 02:47:13;;;;;;;1.77;0.47;;;5.30;99.90;;;;;;5063843;28;20043;-70
2024/02/25 02:49:39;;;;;;;1.17;0.32;;;5.30;99.90;;;;;;5082779;28;20047;-71
2024/02/25 02:52:05;;;;;;;2.63;0.75;;;5.30;99.90;;;;;;5076205;28;20032;-72
2024/02/25 02:54:30;;;;;;;1.98;0.70;;;5.30;99.90;;;;;;5075922;28;20400;-70
2024/02/25 02:56:56;;;;;;;3.35;0.80;;;5.30;99.90;;;;;;5065298;28;20029;-72
2024/02/25 02:59:22;;;;;;;3.42;0.80;;;5.30;99.90;;;;;;5081268;28;20028;-70
2024/02/25 03:01:51;;;;;;;1.52;0.60;;;5.30;99.90;;;;;;5079290;28;20488;-71
2024/02/25 03:04:17;;;;;;;1.58;0.90;;;5.20;99.90;;;;;;5080544;28;20039;-72
2024/02/25 03:06:43;;;;;;;2.58;0.73;;;5.30;99.90;;;;;;5077094;28;20028;-68
2024/02/25 03:09:09;;;;;;;1.75;0.60;;;5.30;99.90;;;;;;5082262;28;20065;-69
2024/02/25 03:11:35;;;;;;;2.35;0.57;;;5.20;99.90;;;;;;5077315;28;20036;-70
2024/02/25 03:14:01;;;;;;;3.85;0.95;;;5.20;99.90;;;;;;5078863;28;20664;-69
2024/02/25 03:16:27;;;;;;;2.30;0.70;;;5.20;99.90;;;;;;5076785;28;20021;-71
2024/02/25 03:18:52;;;;;;;2.45;0.68;;;5.10;99.90;;;;;;5077964;28;20027;-71
2024/02/25 03:21:18;;;;;;;2.80;0.73;;;5.10;99.90;;;;;;5084970;28;20062;-71
2024/02/25 03:23:45;;;;;;;1.63;0.50;;;5.10;99.90;;;;;;5063997;28;20166;-72
2024/02/25 03:26:18;;;;;;;0.95;0.40;;;5.10;99.90;;;;;;5074183;28;20036;-69
2024/02/25 03:28:44;;;;;;;1.60;0.40;;;5.00;99.90;;;;;;5077208;28;20035;-70
2024/02/25 03:31:09;;;;;;;4.90;0.77;;;5.10;99.90;;;;;;5080609;28;20759;-71
2024/02/25 03:33:35;;;;;;;0.60;0.40;;;5.20;99.90;;;;;;5063668;28;20066;-69
2024/02/25 03:36:01;;;;;;;1.17;0.50;;;5.10;99.90;;;;;;5080204;28;20056;-69
2024/02/25 03:38:27;;;;;;;5.07;0.55;;;5.10;99.90;;;;;;5079961;28;20571;-69
2024/02/25 03:40:53;;;;;;;1.75;0.63;;;5.00;99.90;;;;;;5082977;28;20464;-72
2024/02/25 03:43:19;;;;;;;0.70;0.47;;;5.00;99.90;;;;;;5075027;28;20619;-72
2024/02/25 03:45:44;;;;;;;1.42;0.60;;;5.10;99.90;;;;;;5080428;28;20030;-72
2024/02/25 03:48:10;;;;;;;1.27;0.60;;;5.10;99.90;;;;;;5063705;28;20120;-72
2024/02/25 03:50:36;;;;;;;5.07;0.47;;;5.10;99.90;;;;;;5076854;28;20093;-70
2024/02/25 03:53:02;;;;;;;0.50;0.45;;;5.20;99.90;;;;;;5060745;28;20042;-68
2024/02/25 03:55:28;;;;;;;2.75;0.52;;;5.20;99.90;;;;;;5076383;28;20458;-73
2024/02/25 03:57:57;;;;;;;3.40;0.73;;;5.20;99.90;;;;;;5079635;28;20043;-68
2024/02/25 04:00:23;;;;;;;1.88;0.65;;;5.20;99.90;;;;;;5078666;28;20036;-71
2024/02/25 04:02:49;;;;;;;3.80;0.80;;;5.30;99.90;;;;;;5070045;28;20464;-71
2024/02/25 04:05:16;;;;;;;1.27;0.47;;;5.30;99.90;;;;;;5076880;28;20047;-73
2024/02/25 04:07:42;;;;;;;4.85;0.70;;;5.30;99.90;;;;;;5080706;28;20028;-71
2024/02/25 04:10:09;;;;;;;3.53;0.90;;;5.30;99.90;;;;;;5072408;28;20104;-70
2024/02/25 04:12:35;;;;;;;1.07;0.57;;;5.40;99.90;;;;;;5084800;28;20097;-69
2024/02/25 04:15:01;;;;;;;4.07;0.80;;;5.30;99.90;;;;;;5081474;28;20040;-73
2024/02/25 04:17:26;;;;;;;1.58;0.55;;;5.40;99.90;;;;;;5077485;28;20078;-71
2024/02/25 04:19:53;;;;;;;2.97;0.80;;;5.40;99.90;;;;;;5086390;28;20051;-72
2024/02/25 04:22:18;;;;;;;0.75;0.55;;;5.40;99.90;;;;;;5080738;28;20252;-69
2024/02/25 04:24:44;;;;;;;2.17;0.65;;;5.40;99.90;;;;;;5079846;28;20115;-69
2024/02/25 04:27:09;;;;;;;2.55;0.85;;;5.50;99.90;;;;;;5079921;28;20040;-72
2024/02/25 04:29:39;;;;;;;1.80;0.50;;;5.50;99.90;;;;;;5077509;28;20036;-72
2024/02/25 04:32:05;;;;;;;1.42;0.57;;;5.60;99.90;;;;;;5083033;28;20501;-68
2024/02/25 04:34:31;;;;;;;0.45;0.30;;;5.60;99.90;;;;;;5078391;28;20047;-70
2024/02/25 04:36:57;;;;;;;6.32;0.60;;;5.60;99.90;;;;;;5071242;28;20049;-70
2024/02/25 04:39:23;;;;;;;5.38;0.43;;;5.60;99.90;;;;;;5078416;28;20161;-68
2024/02/25 04:41:49;;;;;;;1.42;0.60;;;5.70;99.90;;;;;;5079502;28;20039;-72
2024/02/25 04:44:15;;;;;;;4.45;0.60;;;5.80;99.90;;;;;;5076021;28;20093;-70
2024/02/25 04:46:40;;;;;;;2.25;0.50;;;5.80;99.90;;;;;;5064309;28;20040;-70
2024/02/25 04:49:06;;;;;;;2.15;0.88;;;5.80;99.90;;;;;;5081753;28;20028;-71
2024/02/25 04:51:35;;;;;;;1.05;0.70;;;5.80;99.90;;;;;;5067561;28;20042;-70
2024/02/25 04:54:01;;;;;;;1.35;0.65;;;5.90;99.90;;;;;;5079756;28;20036;-70
2024/02/25 04:56:28;;;;;;;3.97;0.68;;;5.90;99.90;;;;;;5063980;28;20409;-74
2024/02/25 04:58:57;;;;;;;1.02;0.63;;;5.90;99.90;;;;;;5083739;28;20032;-68
2024/02/25 05:01:22;;;;;;;1.67;0.85;;;5.90;99.90;;;;;;5066895;28;20031;-70
2024/02/25 05:03:48;;;;;;;1.52;0.57;;;6.00;99.90;;;;;;5078829;28;20036;-71
2024/02/25 05:06:16;;;;;;;0.70;0.40;;;6.00;99.90;;;;;;5079942;28;20033;-72
2024/02/25 05:08:41;;;;;;;1.45;0.60;;;6.00;99.90;;;;;;5076759;28;20024;-72
2024/02/25 05:11:07;;;;;;;3.55;0.80;;;6.00;99.90;;;;;;5083085;28;20093;-70
2024/02/25 05:13:32;;;;;;;3.03;0.70;;;6.00;99.90;;;;;;5080929;28;20036;-68
2024/02/25 05:15:58;;;;;;;2.30;0.70;;;6.10;99.90;;;;;;5082858;28;20472;-72
2024/02/25 05:18:27;;;;;;;1.35;0.70;;;6.10;99.90;;;;;;5081565;28;20073;-72
2024/02/25 05:20:52;;;;;;;1.13;0.52;;;6.10;99.90;;;;;;5083552;28;20036;-69
2024/02/25 05:23:18;;;;;;;1.67;0.75;;;6.10;99.90;;;;;;5084553;28;20040;-76
2024/02/25 05:25:44;;;;;;;1.80;0.73;;;6.10;99.90;;;;;;5081447;28;20040;-73
2024/02/25 05:28:09;;;;;;;4.18;1.10;;;6.20;99.90;;;;;;5071417;28;20554;-71
2024/02/25 05:30:35;;;;;;;1.90;0.47;;;6.20;99.90;;;;;;5069075;28;20040;-71
2024/02/25 05:33:01;;;;;;;0.85;0.50;;;6.20;99.90;;;;;;5088690;28;20036;-70
2024/02/25 05:35:26;;;;;;;1.73;0.80;;;6.20;99.90;;;;;;5086063;28;20028;-70
2024/02/25 05:37:52;;;;;;;0.68;0.60;;;6.20;99.90;;;;;;5081749;28;20032;-70
2024/02/25 05:40:17;;;;;;;3.67;0.65;;;6.20;99.90;;;;;;5084618;28;20039;-68
2024/02/25 05:42:43;;;;;;;4.35;0.80;;;6.20;99.90;;;;;;5069276;28;20020;-70
2024/02/25 05:45:11;;;;;;;2.17;0.70;;;6.30;99.90;;;;;;5074446;28;20106;-73
2024/02/25 05:47:36;;;;;;;3.53;1.02;;;6.20;99.90;;;;;;5079550;28;20602;-70
2024/02/25 05:50:02;;;;;;;1.20;0.55;;;6.20;99.90;;;;;;5082472;28;20032;-71
2024/02/25 05:52:28;;;;;;;3.47;0.65;;;6.20;99.90;;;;;;5083221;28;20176;-72
2024/02/25 05:54:56;;;;;;;4.85;0.93;;;6.30;99.90;;;;;;5085930;28;20032;-72
2024/02/25 05:57:21;;;;;;;1.08;0.60;;;6.20;99.90;;;;;;5085121;28;20032;-70
2024/02/25 05:59:47;;;;;;;1.20;0.55;;;6.20;99.90;;;;;;5068870;28;20465;-71
2024/02/25 06:02:13;;;;;;;2.70;1.00;;;6.20;99.90;;;;;;5083092;28;20047;-71
2024/02/25 06:04:39;;;;;;;0.95;0.70;;;6.20;99.90;;;;;;5077907;28;20719;-71
2024/02/25 06:07:05;;;;;;;1.65;1.00;;;6.10;99.90;;;;;;5056159;28;20055;-73
2024/02/25 06:09:30;;;;;;;7.65;1.08;;;6.10;99.90;;;;;;5087394;28;20495;-72
2024/02/25 06:11:56;;;;;;;2.05;1.10;;;6.20;99.90;;;;;;5084295;28;20051;-74
2024/02/25 06:14:21;;;;;;;5.60;1.17;;;6.20;99.90;;;;;;5065576;28;20090;-72
2024/02/25 06:16:47;;;;;;;4.97;0.85;;;6.20;99.90;;;;;;5085474;28;20081;-73
2024/02/25 06:19:13;;;;;;;1.85;0.60;;;6.20;99.90;;;;;;5086027;28;20032;-70
2024/02/25 06:21:47;;;;;;;2.63;0.68;;;6.30;99.90;;;;;;5080711;28;20130;-69
2024/02/25 06:24:12;;;;;;;1.98;0.70;;;6.30;99.90;;;;;;5054323;28;20028;-69
2024/02/25 06:26:43;;;;;;;2.00;0.80;;;6.30;99.90;;;;;;5084920;28;20131;-75
2024/02/25 06:29:09;;;;;;;4.40;1.10;;;6.30;99.90;;;;;;5059412;28;20029;-70
2024/02/25 06:31:34;;;;;;;1.50;0.77;;;6.30;99.90;;;;;;5082700;28;20039;-71
2024/02/25 06:34:00;;;;;;;1.25;0.47;;;6.30;99.90;;;;;;5079312;28;20032;-68
2024/02/25 06:36:26;;;;;;;3.10;0.68;;;6.40;99.90;;;;;;5075643;28;20029;-68
2024/02/25 06:38:52;;;;;;;1.98;0.90;;;6.30;99.90;;;;;;5077793;28;20028;-70
2024/02/25 06:41:19;;;;;;;2.83;0.60;;;6.30;99.90;;;;;;5076860;28;23158;-69
2024/02/25 06:43:45;;;;;;;2.13;0.63;;;6.40;99.90;;;;;;5081450;28;20115;-67
2024/02/25 06:46:11;;;;;;;1.85;1.00;;;6.40;99.90;;;;;;5061364;28;20208;-73
2024/02/25 06:48:36;;;;;;;2.13;0.50;;;6.40;99.90;;;;;;5073803;28;20025;-75
2024/02/25 06:51:02;;;;;;;0.93;0.60;;;6.40;99.90;;;;;;5074196;28;20036;-69
2024/02/25 06:53:28;;;;;;;1.77;0.75;;;6.40;99.90;;;;;;5074990;28;20114;-72
2024/02/25 06:55:54;;;;;;;9.60;1.27;;;6.50;99.90;;;;;;5080166;28;20039;-70
2024/02/25 06:58:19;;;;;;;2.47;0.80;;;6.40;99.90;;;;;;5083832;28;20162;-69
2024/02/25 07:00:47;;;;;;;2.22;0.65;;;6.50;99.90;;;;;;5082917;28;20028;-73
2024/02/25 07:03:12;;;;;;;6.55;0.90;;;6.50;99.90;;;;;;5084087;28;20046;-70
2024/02/25 07:05:38;;;;;;;1.10;0.68;;;6.50;99.90;;;;;;5080275;28;20033;-71
2024/02/25 07:08:04;;;;;;;1.42;0.80;;;6.50;99.90;;;;;;5081419;28;20703;-70
2024/02/25 07:10:30;;;;;;;5.13;1.00;;;6.50;99.90;;;;;;5077942;28;20521;-75
2024/02/25 07:12:56;;;;;;;1.48;0.77;;;6.60;99.90;;;;;;5084312;28;20085;-70
2024/02/25 07:15:22;;;;;;;2.75;1.35;;;6.60;99.90;;;;;;5075755;28;20440;-70
2024/02/25 07:17:48;;;;;;;1.35;0.90;;;6.60;99.90;;;;;;5076171;28;20037;-70
2024/02/25 07:20:13;;;;;;;2.38;1.08;;;6.60;99.90;;;;;;5063397;28;20059;-72
2024/02/25 07:22:39;;;;;;;4.50;0.85;;;6.60;99.90;;;;;;5084598;28;20049;-70
2024/02/25 07:25:05;;;;;;;1.30;0.95;;;6.60;99.90;;;;;;5065347;28;20111;-73
2024/02/25 07:27:30;;;;;;;2.70;1.30;;;6.70;99.90;;;;;;5078968;28;20048;-70
2024/02/25 07:29:56;;;;;;;4.35;0.80;;;6.80;99.90;;;;;;5067723;28;20035;-71
2024/02/25 07:32:22;;;;;;;3.75;1.20;;;6.80;99.90;;;;;;5061934;28;20033;-70
2024/02/25 07:34:47;;;;;;;9.35;1.27;;;6.80;99.90;;;;;;5078565;28;20386;-73
2024/02/25 07:37:13;;;;;;;2.95;1.20;;;6.90;99.90;;;;;;5077597;28;20161;-79
2024/02/25 07:39:38;;;;;;;3.78;1.10;;;6.90;99.90;;;;;;5081255;28;20394;-71
2024/02/25 07:42:05;;;;;;;1.60;0.60;;;7.00;99.90;;;;;;5083797;28;20097;-72
2024/02/25 07:44:31;;;;;;;3.08;0.85;;;7.00;99.90;;;;;;5083612;28;20036;-70
2024/02/25 07:46:57;;;;;;;1.08;0.88;;;7.00;99.90;;;;;;5066378;28;20046;-70
2024/02/25 07:49:22;;;;;;;2.83;1.05;;;7.10;99.90;;;;;;5080128;28;20024;-69
2024/02/25 07:51:48;;;;;;;0.93;0.60;;;7.10;99.90;;;;;;5083224;28;20020;-72
2024/02/25 07:54:13;;;;;;;1.95;0.85;;;7.20;99.90;;;;;;5066680;28;20036;-69
2024/02/25 07:56:39;;;;;;;2.25;0.98;;;7.20;99.90;;;;;;5077591;28;20036;-71
2024/02/25 07:59:05;;;;;;;2.67;0.50;;;7.30;99.90;;;;;;5081521;28;20097;-69
2024/02/25 08:01:34;;;;;;;1.35;0.70;;;7.30;99.90;;;;;;5083541;28;20093;-71
2024/02/25 08:04:00;;;;;;;1.60;0.90;;;7.30;99.90;;;;;;5078034;28;20035;-71
2024/02/25 08:06:27;;;;;;;3.38;1.10;;;7.30;99.90;;;;;;5073372;28;20046;-70
2024/02/25 08:08:53;;;;;;;4.82;0.82;;;7.40;99.90;;;;;;5077223;28;20033;-68
2024/02/25 08:11:18;;;;;;;4.28;0.93;;;7.40;99.90;;;;;;5061860;28;20377;-68
2024/02/25 08:13:44;;;;;;;1.63;1.00;;;7.40;99.90;;;;;;5076838;28;20555;-72
2024/02/25 08:16:09;;;;;;;1.30;1.00;;;7.50;99.90;;;;;;5073565;28;20052;-71
2024/02/25 08:18:36;;;;;;;2.10;0.77;;;7.50;99.90;;;;;;5077580;28;20127;-74
2024/02/25 08:21:02;;;;;;;4.07;1.10;;;7.50;99.90;;;;;;5079991;28;20036;-70
2024/02/25 08:23:28;;;;;;;3.35;1.25;;;7.60;99.90;;;;;;5080146;28;20079;-70
2024/02/25 08:25:54;;;;;;;7.93;1.30;;;7.60;99.90;;;;;;5081561;28;20055;-70
2024/02/25 08:28:20;;;;;;;3.42;1.05;;;7.70;99.90;;;;;;5076008;28;20350;-72
2024/02/25 08:30:46;;;;;;;3.92;1.23;;;7.70;99.90;;;;;;5078843;28;20103;-71
2024/02/25 08:33:12;;;;;;;2.28;1.40;;;7.70;99.90;;;;;;5077083;28;20131;-73
2024/02/25 08:35:37;;;;;;;5.13;1.25;;;7.80;99.90;;;;;;5082266;28;20123;-71
2024/02/25 08:38:03;;;;;;;3.80;1.13;;;7.80;99.90;;;;;;5077809;28;20512;-67
2024/02/25 08:40:30;;;;;;;1.52;1.00;;;7.90;99.90;;;;;;5076657;28;20085;-68
2024/02/25 08:42:55;;;;;;;2.35;0.90;;;7.90;99.90;;;;;;5061865;28;20119;-70
2024/02/25 08:45:22;;;;;;;2.05;1.05;;;7.90;99.90;;;;;;5078568;28;20135;-70
2024/02/25 08:47:48;;;;;;;3.28;1.15;;;8.00;99.90;;;;;;5081941;28;20044;-71
2024/02/25 08:50:14;;;;;;;2.60;1.17;;;7.90;99.90;;;;;;5084163;28;20040;-72
2024/02/25 08:52:39;;;;;;;2.60;1.05;;;8.00;99.90;;;;;;5080762;28;20685;-70
2024/02/25 08:55:06;;;;;;;1.98;1.13;;;8.00;99.90;;;;;;5083767;28;20041;-70
2024/02/25 08:57:33;;;;;;;2.37;1.20;;;8.00;99.90;;;;;;5084934;28;20036;-70
2024/02/25 08:59:59;;;;;;;4.65;1.45;;;8.10;99.90;;;;;;5088869;28;20342;-69
2024/02/25 09:02:25;;;;;;;2.97;1.20;;;8.10;99.90;;;;;;5087261;28;20113;-69
2024/02/25 09:04:51;;;;;;;1.65;1.00;;;8.20;99.90;;;;;;5082837;28;20030;-69
2024/02/25 09:07:17;;;;;;;1.73;1.00;;;8.20;99.90;;;;;;5068858;28;20543;-69
2024/02/25 09:09:43;;;;;;;1.40;0.90;;;8.30;99.90;;;;;;5086016;28;20073;-68
2024/02/25 09:12:13;;;;;;;1.00;0.90;;;8.30;99.90;;;;;;5080732;28;20127;-71
2024/02/25 09:14:42;;;;;;;3.63;0.98;;;8.40;99.90;;;;;;5083645;28;20047;-70
2024/02/25 09:17:07;;;;;;;1.30;0.90;;;8.40;99.90;;;;;;5063859;28;20091;-73
2024/02/25 09:19:33;;;;;;;2.22;0.73;;;8.40;99.90;;;;;;5089399;28;20028;-69
2024/02/25 09:21:59;;;;;;;2.35;0.80;;;8.40;99.90;;;;;;5070921;28;20020;-71
2024/02/25 09:24:26;;;;;;;2.40;1.00;;;8.50;99.90;;;;;;5088398;28;20028;-69
2024/02/25 09:26:51;;;;;;;4.55;1.00;;;8.60;99.90;;;;;;5090275;28;20028;-71
2024/02/25 09:29:20;;;;;;;2.83;1.23;;;8.60;99.90;;;;;;5080094;28;20066;-71
2024/02/25 09:31:45;;;;;;;2.60;1.10;;;8.70;99.90;;;;;;5081923;28;20055;-70
2024/02/25 09:34:11;;;;;;;1.70;0.80;;;8.70;99.90;;;;;;5080201;28;20126;-67
2024/02/25 09:36:37;;;;;;;1.15;0.70;;;8.70;99.90;;;;;;5083535;28;20043;-69
2024/02/25 09:39:03;;;;;;;1.33;0.80;;;8.70;99.70;;;;;;5081353;28;20035;-70
2024/02/25 09:41:36;;;;;;;1.10;0.90;;;8.70;99.80;;;;;;5082383;28;20037;-70
2024/02/25 09:44:03;;;;;;;2.88;0.70;;;8.80;99.90;;;;;;5066258;28;20793;-72
2024/02/25 09:46:34;;;;;;;1.70;0.77;;;8.80;99.90;;;;;;5080551;28;20385;-69
2024/02/25 09:49:00;;;;;;;4.72;1.00;;;8.80;99.90;;;;;;5081785;28;20043;-71
2024/02/25 09:51:26;;;;;;;1.27;0.85;;;8.80;99.90;;;;;;5068770;28;20420;-67
2024/02/25 09:53:53;;;;;;;2.13;0.80;;;8.80;99.90;;;;;;5076953;28;20033;-72
2024/02/25 09:56:20;;;;;;;1.10;0.88;;;8.90;99.90;;;;;;5077206;28;20520;-72
2024/02/25 09:58:45;;;;;;;4.80;1.25;;;8.80;99.90;;;;;;5083493;28;20040;-70
2024/02/25 10:01:11;;;;;;;2.20;0.70;;;8.90;99.90;;;;;;5082289;28;20710;-67
2024/02/25 10:03:42;;;;;;;1.27;0.70;;;8.90;99.90;;;;;;5085521;28;20071;-70
2024/02/25 10:06:08;;;;;;;1.42;0.50;;;8.90;99.90;;;;;;5085353;28;20107;-70
2024/02/25 10:08:45;;;;;;;1.02;0.63;;;8.90;99.90;;;;;;5086534;28;20586;-71
2024/02/25 10:11:11;;;;;;;2.72;0.90;;;8.90;99.90;;;;;;5068413;28;20059;-80
2024/02/25 10:13:37;;;;;;;2.17;0.55;;;8.80;99.90;;;;;;5088127;28;20042;-68
2024/02/25 10:16:03;;;;;;;2.45;0.70;;;8.80;99.90;;;;;;5089581;28;20024;-70
2024/02/25 10:18:28;;;;;;;5.40;1.83;;;8.80;99.90;;;;;;5083485;28;20692;-70
2024/02/25 10:21:00;;;;;;;2.95;1.30;;;8.80;99.90;;;;;;5081891;28;20036;-68
2024/02/25 10:23:27;;;;;;;1.17;0.90;;;8.80;99.90;;;;;;5082150;28;20036;-68
2024/02/25 10:25:53;;;;;;;1.48;0.80;;;8.90;99.90;;;;;;5079813;28;20037;-73
2024/02/25 10:28:19;;;;;;;1.38;0.80;;;9.00;99.90;;;;;;5089080;28;20038;-70
2024/02/25 10:31:01;;;;;;;3.35;0.70;;;9.10;99.90;;;;;;5086405;28;20038;-71
2024/02/25 10:33:26;;;;;;;0.55;0.45;;;9.20;99.90;;;;;;5079844;28;20060;-70
2024/02/25 10:36:19;;;;;;;2.03;1.27;;;9.40;99.90;;;;;;5084296;28;20047;-68
2024/02/25 10:38:46;;;;;;;1.35;0.60;;;9.60;99.90;;;;;;5082750;28;20028;-70
2024/02/25 10:41:15;;;;;;;2.40;0.80;;;9.70;99.90;;;;;;5082056;28;20024;-71
2024/02/25 10:43:40;;;;;;;1.00;0.63;;;9.80;99.90;;;;;;5084277;28;20032;-70
2024/02/25 10:46:30;;;;;;;3.28;1.00;;;9.80;99.90;;;;;;5088085;28;20055;-72
2024/02/25 10:48:57;;;;;;;1.08;0.63;;;9.90;99.90;;;;;;5088426;28;20116;-72
2024/02/25 10:51:24;;;;;;;0.90;0.50;;;10.10;99.80;;;;;;5086363;28;20027;-69
2024/02/25 10:53:50;;;;;;;0.68;0.50;;;10.50;99.80;;;;;;5068510;28;20044;-71
2024/02/25 10:56:18;;;;;;;1.80;0.82;;;10.60;99.50;;;;;;5090659;28;20434;-68
2024/02/25 10:58:49;;;;;;;1.02;0.60;;;10.70;99.10;;;;;;5069413;28;20028;-68
2024/02/25 11:01:16;;;;;;;0.73;0.52;;;10.90;98.40;;;;;;5084545;28;20028;-69
2024/02/25 11:03:43;;;;;;;3.83;0.60;;;11.00;98.20;;;;;;5084814;28;20059;-71
2024/02/25 11:06:09;;;;;;;1.23;0.38;;;11.00;98.20;;;;;;5080727;28;20024;-73
2024/02/25 11:08:38;;;;;;;0.45;0.40;;;11.00;98.10;;;;;;5087804;28;20111;-73
2024/02/25 11:11:11;;;;;;;2.95;0.52;;;11.00;98.20;;;;;;5087473;28;20024;-68
2024/02/25 11:13:44;;;;;;;3.40;1.08;;;10.80;97.70;;;;;;5089184;28;20039;-68
2024/02/25 11:16:10;;;;;;;0.63;0.40;;;10.70;98.00;;;;;;5090514;28;20145;-70
2024/02/25 11:18:46;;;;;;;1.83;0.68;;;10.60;98.00;;;;;;5085650;28;20458;-67
2024/02/25 11:21:19;;;;;;;0.73;0.40;;;10.60;98.10;;;;;;5070180;28;20040;-72
2024/02/25 11:23:47;;;;;;;1.02;0.70;;;10.50;97.80;;;;;;5084897;28;20096;-71
2024/02/25 11:26:35;;;;;;;1.05;0.40;;;10.60;98.10;;;;;;5085196;28;20040;-69
2024/02/25 11:29:17;;;;;;;2.22;0.50;;;10.60;97.80;;;;;;5088370;28;20027;-72
2024/02/25 11:31:50;;;;;;;2.55;0.52;;;10.50;97.80;;;;;;5065564;28;20535;-70
2024/02/25 11:34:24;;;;;;;0.60;0.40;;;10.90;98.40;;;;;;5071794;28;20028;-67
2024/02/25 11:36:58;;;;;;;0.95;0.50;;;11.60;98.00;;;;;;5066419;28;20028;-74
2024/02/25 11:39:28;;;;;;;0.93;0.50;;;11.70;97.10;;;;;;5088776;28;20028;-69
2024/02/25 11:42:00;;;;;;;0.80;0.70;;;11.60;96.70;;;;;;5071760;28;20141;-67
2024/02/25 11:44:27;;;;;;;1.48;0.60;;;12.00;96.80;;;;;;5066062;28;20032;-74
2024/02/25 11:47:00;;;;;;;2.03;0.60;;;11.80;96.10;;;;;;5081132;28;20065;-67
2024/02/25 11:49:27;;;;;;;0.57;0.40;;;11.90;96.40;;;;;;5079963;28;20028;-67
2024/02/25 11:51:54;;;;;;;0.43;0.43;;;12.20;96.50;;;;;;5086460;28;20043;-67
2024/02/25 11:54:19;;;;;;;0.70;0.52;;;13.10;96.50;;;;;;5072355;28;20024;-73
2024/02/25 11:56:46;;;;;;;0.80;0.50;;;13.20;95.00;;;;;;5070895;28;20039;-68
2024/02/25 11:59:12;;;;;;;0.47;0.30;;;13.00;94.80;;;;;;5096701;28;20024;-73
2024/02/25 12:01:38;;;;;;;1.98;0.55;;;13.10;95.40;;;;;;5094295;28;20024;-67
2024/02/25 12:04:04;;;;;;;1.20;0.50;;;13.50;94.80;;;;;;5072777;28;20165;-71
2024/02/25 12:06:32;;;;;;;0.85;0.50;;;13.90;94.90;;;;;;5088509;28;20036;-67
2024/02/25 12:08:59;;;;;;;1.63;0.60;;;14.30;94.80;;;;;;5083610;28;20059;-67
2024/02/25 12:11:26;;;;;;;0.80;0.60;;;14.60;92.80;;;;;;5089086;28;20690;-69
2024/02/25 12:14:16;;;;;;;0.65;0.50;;;14.90;92.70;;;;;;5088888;28;20040;-68
2024/02/25 12:16:43;;;;;;;2.92;0.57;;;15.10;92.30;;;;;;5073631;28;20119;-67
2024/02/25 12:19:12;;;;;;;1.02;0.80;;;14.80;92.50;;;;;;5092411;28;20531;-67
2024/02/25 12:21:40;;;;;;;0.30;0.30;;;15.10;93.00;;;;;;5091460;28;20032;-69
2024/02/25 12:24:07;;;;;;;0.57;0.40;;;15.10;92.30;;;;;;5072842;28;20067;-67
2024/02/25 12:26:49;;;;;;;1.20;0.50;;;15.30;92.80;;;;;;5091439;28;20044;-68
2024/02/25 12:29:15;;;;;;;1.35;0.50;;;15.50;92.00;;;;;;5090069;28;20033;-71
2024/02/25 12:31:42;;;;;;;0.30;0.28;;;15.40;91.90;;;;;;5083826;28;20566;-71
2024/02/25 12:34:07;;;;;;;1.50;0.68;;;15.80;92.20;;;;;;5091705;28;20040;-67
2024/02/25 12:36:33;;;;;;;0.50;0.35;;;16.10;92.00;;;;;;5083102;28;20154;-67
2024/02/25 12:38:59;;;;;;;0.50;0.50;;;16.10;91.80;;;;;;5079749;28;20033;-66
2024/02/25 12:41:29;;;;;;;0.88;0.40;;;15.80;90.30;;;;;;5079162;28;20112;-67
2024/02/25 12:43:55;;;;;;;0.80;0.50;;;15.80;90.60;;;;;;5078580;28;20020;-67
2024/02/25 12:46:21;;;;;;;0.90;0.50;;;15.20;90.70;;;;;;5077250;28;20078;-69
2024/02/25 12:48:47;;;;;;;1.00;0.47;;;14.70;90.80;;;;;;5084319;28;20024;-69
2024/02/25 12:51:20;;;;;;;0.57;0.45;;;14.00;91.00;;;;;;5084737;28;20512;-67
2024/02/25 12:53:46;;;;;;;1.02;0.60;;;13.50;91.10;;;;;;5086293;28;20055;-67